sensor_id;sensor_type;location;lat;lon;timestamp;temperature;humidity
70089;HTU21D;57460;47.134;19.888;2022-09-09T00:05:04;23.50;67.69
70089;HTU21D;57460;47.134;19.888;2022-09-09T00:07:50;23.44;67.81
70089;HTU21D;57460;47.134;19.888;2022-09-09T00:10:51;23.29;68.08
70089;HTU21D;57460;47.134;19.888;2022-09-09T00:13:48;23.29;68.16
70089;HTU21D;57460;47.134;19.888;2022-09-09T00:16:27;23.32;68.00
70089;HTU21D;57460;47.134;19.888;2022-09-09T00:19:17;23.34;67.29
70089;HTU21D;57460;47.134;19.888;2022-09-09T00:24:51;23.17;67.89
70089;HTU21D;57460;47.134;19.888;2022-09-09T00:27:37;23.13;68.14
70089;HTU21D;57460;47.134;19.888;2022-09-09T00:37:23;22.84;68.84
70089;HTU21D;57460;47.134;19.888;2022-09-09T00:40:29;22.90;67.04
70089;HTU21D;57460;47.134;19.888;2022-09-09T00:48:36;22.66;69.24
70089;HTU21D;57460;47.134;19.888;2022-09-09T00:57:13;22.43;68.89
70089;HTU21D;57460;47.134;19.888;2022-09-09T01:03:36;22.17;71.96
70089;HTU21D;57460;47.134;19.888;2022-09-09T01:16:40;22.09;68.62
70089;HTU21D;57460;47.134;19.888;2022-09-09T01:28:10;22.16;71.03
70089;HTU21D;57460;47.134;19.888;2022-09-09T01:30:40;22.24;70.17
70089;HTU21D;57460;47.134;19.888;2022-09-09T01:33:15;22.34;70.88
70089;HTU21D;57460;47.134;19.888;2022-09-09T01:36:08;22.35;72.85
70089;HTU21D;57460;47.134;19.888;2022-09-09T01:38:36;22.39;70.16
70089;HTU21D;57460;47.134;19.888;2022-09-09T01:41:17;22.46;69.69
70089;HTU21D;57460;47.134;19.888;2022-09-09T01:43:43;22.49;68.83
70089;HTU21D;57460;47.134;19.888;2022-09-09T01:46:22;22.50;70.68
70089;HTU21D;57460;47.134;19.888;2022-09-09T01:49:11;22.54;70.13
70089;HTU21D;57460;47.134;19.888;2022-09-09T01:51:43;22.55;69.52
70089;HTU21D;57460;47.134;19.888;2022-09-09T01:54:14;22.57;68.90
70089;HTU21D;57460;47.134;19.888;2022-09-09T01:57:21;22.70;67.64
70089;HTU21D;57460;47.134;19.888;2022-09-09T02:00:09;22.50;70.51
70089;HTU21D;57460;47.134;19.888;2022-09-09T02:03:04;22.42;70.22
70089;HTU21D;57460;47.134;19.888;2022-09-09T02:08:40;22.21;71.51
70089;HTU21D;57460;47.134;19.888;2022-09-09T02:11:16;22.19;72.38
70089;HTU21D;57460;47.134;19.888;2022-09-09T02:13:45;22.13;72.67
70089;HTU21D;57460;47.134;19.888;2022-09-09T02:16:19;22.09;70.58
70089;HTU21D;57460;47.134;19.888;2022-09-09T02:19:02;22.08;70.16
70089;HTU21D;57460;47.134;19.888;2022-09-09T02:21:35;22.08;69.89
70089;HTU21D;57460;47.134;19.888;2022-09-09T02:24:05;22.05;71.31
70089;HTU21D;57460;47.134;19.888;2022-09-09T02:26:41;21.99;70.77
70089;HTU21D;57460;47.134;19.888;2022-09-09T02:29:20;22.05;68.87
70089;HTU21D;57460;47.134;19.888;2022-09-09T02:32:19;21.98;69.38
70089;HTU21D;57460;47.134;19.888;2022-09-09T02:34:55;21.87;71.16
70089;HTU21D;57460;47.134;19.888;2022-09-09T02:37:31;21.80;73.93
70089;HTU21D;57460;47.134;19.888;2022-09-09T02:40:10;21.76;73.35
70089;HTU21D;57460;47.134;19.888;2022-09-09T02:42:40;21.75;73.24
70089;HTU21D;57460;47.134;19.888;2022-09-09T02:45:10;21.65;71.89
70089;HTU21D;57460;47.134;19.888;2022-09-09T02:47:56;21.57;73.94
70089;HTU21D;57460;47.134;19.888;2022-09-09T02:51:06;21.51;73.82
70089;HTU21D;57460;47.134;19.888;2022-09-09T02:56:52;21.38;73.18
70089;HTU21D;57460;47.134;19.888;2022-09-09T02:59:21;21.35;73.03
70089;HTU21D;57460;47.134;19.888;2022-09-09T03:01:56;21.36;71.06
70089;HTU21D;57460;47.134;19.888;2022-09-09T03:04:28;21.22;73.54
70089;HTU21D;57460;47.134;19.888;2022-09-09T03:07:07;21.21;72.22
70089;HTU21D;57460;47.134;19.888;2022-09-09T03:09:44;21.23;72.23
70089;HTU21D;57460;47.134;19.888;2022-09-09T03:12:11;21.25;72.74
70089;HTU21D;57460;47.134;19.888;2022-09-09T03:42:51;21.09;70.24
70089;HTU21D;57460;47.134;19.888;2022-09-09T03:45:35;20.99;70.32
70089;HTU21D;57460;47.134;19.888;2022-09-09T03:48:07;20.86;71.84
70089;HTU21D;57460;47.134;19.888;2022-09-09T03:50:56;20.73;72.11
70089;HTU21D;57460;47.134;19.888;2022-09-09T03:57:03;20.57;71.81
70089;HTU21D;57460;47.134;19.888;2022-09-09T04:00:08;20.50;72.85
70089;HTU21D;57460;47.134;19.888;2022-09-09T04:09:27;20.39;72.10
70089;HTU21D;57460;47.134;19.888;2022-09-09T04:15:21;20.30;73.79
70089;HTU21D;57460;47.134;19.888;2022-09-09T04:20:57;20.36;70.79
70089;HTU21D;57460;47.134;19.888;2022-09-09T04:23:28;20.36;72.51
70089;HTU21D;57460;47.134;19.888;2022-09-09T04:26:24;20.37;70.55
70089;HTU21D;57460;47.134;19.888;2022-09-09T04:45:12;20.39;73.37
70089;HTU21D;57460;47.134;19.888;2022-09-09T05:04:13;20.44;70.20
70089;HTU21D;57460;47.134;19.888;2022-09-09T05:06:43;20.42;70.57
70089;HTU21D;57460;47.134;19.888;2022-09-09T05:09:28;20.39;72.63
70089;HTU21D;57460;47.134;19.888;2022-09-09T05:11:55;20.42;72.38
70089;HTU21D;57460;47.134;19.888;2022-09-09T05:14:21;20.47;70.48
70089;HTU21D;57460;47.134;19.888;2022-09-09T05:16:48;20.48;70.44
70089;HTU21D;57460;47.134;19.888;2022-09-09T05:19:15;20.49;71.49
70089;HTU21D;57460;47.134;19.888;2022-09-09T05:21:47;20.54;72.50
70089;HTU21D;57460;47.134;19.888;2022-09-09T05:24:19;20.60;71.13
70089;HTU21D;57460;47.134;19.888;2022-09-09T05:26:50;20.70;70.77
70089;HTU21D;57460;47.134;19.888;2022-09-09T05:29:21;20.73;72.20
70089;HTU21D;57460;47.134;19.888;2022-09-09T05:31:58;20.85;69.74
70089;HTU21D;57460;47.134;19.888;2022-09-09T05:34:27;20.88;69.59
70089;HTU21D;57460;47.134;19.888;2022-09-09T05:36:55;21.00;69.52
70089;HTU21D;57460;47.134;19.888;2022-09-09T05:39:26;21.11;69.21
70089;HTU21D;57460;47.134;19.888;2022-09-09T05:41:58;21.04;69.52
70089;HTU21D;57460;47.134;19.888;2022-09-09T05:44:24;20.96;70.04
70089;HTU21D;57460;47.134;19.888;2022-09-09T05:46:55;20.88;70.81
70089;HTU21D;57460;47.134;19.888;2022-09-09T05:49:24;20.85;70.40
70089;HTU21D;57460;47.134;19.888;2022-09-09T05:51:51;20.75;72.62
70089;HTU21D;57460;47.134;19.888;2022-09-09T05:54:24;20.65;73.65
70089;HTU21D;57460;47.134;19.888;2022-09-09T05:56:50;20.62;73.58
70089;HTU21D;57460;47.134;19.888;2022-09-09T05:59:23;20.68;71.24
70089;HTU21D;57460;47.134;19.888;2022-09-09T06:02:02;20.75;72.32
70089;HTU21D;57460;47.134;19.888;2022-09-09T06:04:31;20.86;71.74
70089;HTU21D;57460;47.134;19.888;2022-09-09T06:06:57;21.01;71.59
70089;HTU21D;57460;47.134;19.888;2022-09-09T06:09:25;21.07;70.73
70089;HTU21D;57460;47.134;19.888;2022-09-09T06:11:58;21.17;70.13
70089;HTU21D;57460;47.134;19.888;2022-09-09T06:14:24;21.18;70.90
70089;HTU21D;57460;47.134;19.888;2022-09-09T06:16:52;21.30;70.45
70089;HTU21D;57460;47.134;19.888;2022-09-09T06:19:18;21.42;69.81
70089;HTU21D;57460;47.134;19.888;2022-09-09T06:21:45;21.47;69.29
70089;HTU21D;57460;47.134;19.888;2022-09-09T06:24:18;21.64;68.39
70089;HTU21D;57460;47.134;19.888;2022-09-09T06:26:45;21.51;68.86
70089;HTU21D;57460;47.134;19.888;2022-09-09T06:29:12;21.48;68.61
70089;HTU21D;57460;47.134;19.888;2022-09-09T06:31:38;21.52;68.47
70089;HTU21D;57460;47.134;19.888;2022-09-09T06:34:06;21.63;67.99
70089;HTU21D;57460;47.134;19.888;2022-09-09T06:36:37;21.52;68.30
70089;HTU21D;57460;47.134;19.888;2022-09-09T06:39:06;21.60;68.20
70089;HTU21D;57460;47.134;19.888;2022-09-09T06:41:33;21.83;67.23
70089;HTU21D;57460;47.134;19.888;2022-09-09T06:44:10;21.91;66.64
70089;HTU21D;57460;47.134;19.888;2022-09-09T06:46:37;21.87;66.71
70089;HTU21D;57460;47.134;19.888;2022-09-09T06:49:03;21.78;67.04
70089;HTU21D;57460;47.134;19.888;2022-09-09T06:51:31;21.90;66.75
70089;HTU21D;57460;47.134;19.888;2022-09-09T06:54:00;21.83;66.57
70089;HTU21D;57460;47.134;19.888;2022-09-09T06:56:30;21.92;66.71
70089;HTU21D;57460;47.134;19.888;2022-09-09T06:58:58;21.96;66.53
70089;HTU21D;57460;47.134;19.888;2022-09-09T07:01:28;21.98;66.46
70089;HTU21D;57460;47.134;19.888;2022-09-09T07:03:57;22.09;66.14
70089;HTU21D;57460;47.134;19.888;2022-09-09T07:06:29;22.11;65.92
70089;HTU21D;57460;47.134;19.888;2022-09-09T07:09:00;22.24;66.07
70089;HTU21D;57460;47.134;19.888;2022-09-09T07:11:29;22.29;66.11
70089;HTU21D;57460;47.134;19.888;2022-09-09T07:13:58;22.42;65.60
70089;HTU21D;57460;47.134;19.888;2022-09-09T07:16:25;22.62;64.66
70089;HTU21D;57460;47.134;19.888;2022-09-09T07:18:53;22.60;63.76
70089;HTU21D;57460;47.134;19.888;2022-09-09T07:21:24;22.73;64.53
70089;HTU21D;57460;47.134;19.888;2022-09-09T07:23:52;22.92;64.29
70089;HTU21D;57460;47.134;19.888;2022-09-09T07:26:20;22.94;62.21
70089;HTU21D;57460;47.134;19.888;2022-09-09T07:28:47;23.06;63.84
70089;HTU21D;57460;47.134;19.888;2022-09-09T07:31:16;23.26;62.99
70089;HTU21D;57460;47.134;19.888;2022-09-09T07:33:43;23.38;61.86
70089;HTU21D;57460;47.134;19.888;2022-09-09T07:36:18;23.29;60.42
70089;HTU21D;57460;47.134;19.888;2022-09-09T07:38:52;23.32;61.97
70089;HTU21D;57460;47.134;19.888;2022-09-09T07:41:25;23.47;62.32
70089;HTU21D;57460;47.134;19.888;2022-09-09T07:43:52;23.65;61.55
70089;HTU21D;57460;47.134;19.888;2022-09-09T07:46:23;23.65;61.17
70089;HTU21D;57460;47.134;19.888;2022-09-09T07:48:53;23.57;61.38
70089;HTU21D;57460;47.134;19.888;2022-09-09T07:51:23;23.57;59.39
70089;HTU21D;57460;47.134;19.888;2022-09-09T07:53:55;23.76;61.18
70089;HTU21D;57460;47.134;19.888;2022-09-09T07:56:24;23.85;61.09
70089;HTU21D;57460;47.134;19.888;2022-09-09T07:58:52;23.96;60.37
70089;HTU21D;57460;47.134;19.888;2022-09-09T08:01:27;24.16;59.80
70089;HTU21D;57460;47.134;19.888;2022-09-09T08:04:00;24.17;59.85
70089;HTU21D;57460;47.134;19.888;2022-09-09T08:06:29;24.19;59.75
70089;HTU21D;57460;47.134;19.888;2022-09-09T08:08:55;24.34;59.86
70089;HTU21D;57460;47.134;19.888;2022-09-09T08:11:24;24.49;59.28
70089;HTU21D;57460;47.134;19.888;2022-09-09T08:13:51;24.61;58.80
70089;HTU21D;57460;47.134;19.888;2022-09-09T08:16:37;24.47;58.93
70089;HTU21D;57460;47.134;19.888;2022-09-09T08:19:04;24.47;59.70
70089;HTU21D;57460;47.134;19.888;2022-09-09T08:21:32;24.62;60.08
70089;HTU21D;57460;47.134;19.888;2022-09-09T08:24:00;24.80;59.55
70089;HTU21D;57460;47.134;19.888;2022-09-09T08:26:29;24.80;59.18
70089;HTU21D;57460;47.134;19.888;2022-09-09T08:28:58;24.95;59.38
70089;HTU21D;57460;47.134;19.888;2022-09-09T08:31:35;25.02;58.89
70089;HTU21D;57460;47.134;19.888;2022-09-09T08:34:03;25.36;57.77
70089;HTU21D;57460;47.134;19.888;2022-09-09T08:36:33;25.31;57.34
70089;HTU21D;57460;47.134;19.888;2022-09-09T08:38:59;25.40;58.14
70089;HTU21D;57460;47.134;19.888;2022-09-09T08:55:54;26.11;54.65
70089;HTU21D;57460;47.134;19.888;2022-09-09T08:58:30;26.30;54.10
70089;HTU21D;57460;47.134;19.888;2022-09-09T09:03:55;26.65;52.24
70089;HTU21D;57460;47.134;19.888;2022-09-09T09:11:55;27.01;51.43
70089;HTU21D;57460;47.134;19.888;2022-09-09T09:14:28;26.99;50.54
70089;HTU21D;57460;47.134;19.888;2022-09-09T09:23:41;27.63;50.92
70089;HTU21D;57460;47.134;19.888;2022-09-09T09:29:17;27.70;49.44
70089;HTU21D;57460;47.134;19.888;2022-09-09T09:31:51;27.83;48.23
70089;HTU21D;57460;47.134;19.888;2022-09-09T09:34:21;28.06;48.76
70089;HTU21D;57460;47.134;19.888;2022-09-09T09:43:04;28.18;47.42
70089;HTU21D;57460;47.134;19.888;2022-09-09T09:45:41;28.09;45.02
70089;HTU21D;57460;47.134;19.888;2022-09-09T09:48:12;28.14;47.59
70089;HTU21D;57460;47.134;19.888;2022-09-09T09:53:31;28.52;46.16
70089;HTU21D;57460;47.134;19.888;2022-09-09T09:56:03;28.67;45.28
70089;HTU21D;57460;47.134;19.888;2022-09-09T09:58:33;28.94;45.44
70089;HTU21D;57460;47.134;19.888;2022-09-09T10:03:52;29.41;40.59
70089;HTU21D;57460;47.134;19.888;2022-09-09T10:06:29;29.42;43.81
70089;HTU21D;57460;47.134;19.888;2022-09-09T10:08:56;29.52;43.13
70089;HTU21D;57460;47.134;19.888;2022-09-09T10:11:55;29.50;42.98
70089;HTU21D;57460;47.134;19.888;2022-09-09T10:20:39;29.26;42.57
70089;HTU21D;57460;47.134;19.888;2022-09-09T10:26:32;29.19;41.99
70089;HTU21D;57460;47.134;19.888;2022-09-09T10:32:18;28.88;41.58
70089;HTU21D;57460;47.134;19.888;2022-09-09T10:43:18;28.86;43.39
70089;HTU21D;57460;47.134;19.888;2022-09-09T10:48:42;28.99;42.49
70089;HTU21D;57460;47.134;19.888;2022-09-09T10:57:00;29.00;40.22
70089;HTU21D;57460;47.134;19.888;2022-09-09T11:06:05;29.23;40.31
70089;HTU21D;57460;47.134;19.888;2022-09-09T11:08:51;29.41;39.45
70089;HTU21D;57460;47.134;19.888;2022-09-09T11:11:56;29.17;39.12
70089;HTU21D;57460;47.134;19.888;2022-09-09T11:14:39;29.26;39.79
70089;HTU21D;57460;47.134;19.888;2022-09-09T11:17:15;29.46;40.01
70089;HTU21D;57460;47.134;19.888;2022-09-09T11:20:15;29.85;38.67
70089;HTU21D;57460;47.134;19.888;2022-09-09T11:34:16;30.24;35.86
70089;HTU21D;57460;47.134;19.888;2022-09-09T11:42:43;30.23;36.04
70089;HTU21D;57460;47.134;19.888;2022-09-09T11:45:28;30.46;34.25
70089;HTU21D;57460;47.134;19.888;2022-09-09T11:47:57;30.72;33.83
70089;HTU21D;57460;47.134;19.888;2022-09-09T11:52:49;31.22;33.52
70089;HTU21D;57460;47.134;19.888;2022-09-09T11:55:27;31.26;34.93
70089;HTU21D;57460;47.134;19.888;2022-09-09T11:58:06;31.33;34.76
70089;HTU21D;57460;47.134;19.888;2022-09-09T12:00:46;31.41;34.07
70089;HTU21D;57460;47.134;19.888;2022-09-09T12:03:35;31.69;34.58
70089;HTU21D;57460;47.134;19.888;2022-09-09T12:06:26;32.10;31.83
70089;HTU21D;57460;47.134;19.888;2022-09-09T12:09:47;32.03;33.45
70089;HTU21D;57460;47.134;19.888;2022-09-09T12:12:26;32.17;31.41
70089;HTU21D;57460;47.134;19.888;2022-09-09T12:15:16;32.33;31.96
70089;HTU21D;57460;47.134;19.888;2022-09-09T12:17:45;32.55;31.99
70089;HTU21D;57460;47.134;19.888;2022-09-09T12:20:22;32.61;32.38
70089;HTU21D;57460;47.134;19.888;2022-09-09T12:33:44;32.34;29.24
70089;HTU21D;57460;47.134;19.888;2022-09-09T12:36:27;32.26;29.90
70089;HTU21D;57460;47.134;19.888;2022-09-09T12:38:59;32.32;31.51
70089;HTU21D;57460;47.134;19.888;2022-09-09T12:41:35;32.22;31.15
70089;HTU21D;57460;47.134;19.888;2022-09-09T12:44:19;32.31;31.30
70089;HTU21D;57460;47.134;19.888;2022-09-09T12:46:46;32.46;30.22
70089;HTU21D;57460;47.134;19.888;2022-09-09T12:49:37;32.44;29.84
70089;HTU21D;57460;47.134;19.888;2022-09-09T12:52:36;32.38;30.64
70089;HTU21D;57460;47.134;19.888;2022-09-09T12:55:06;32.48;31.83
70089;HTU21D;57460;47.134;19.888;2022-09-09T12:57:57;32.32;30.55
70089;HTU21D;57460;47.134;19.888;2022-09-09T13:00:36;32.20;29.70
70089;HTU21D;57460;47.134;19.888;2022-09-09T13:04:01;32.37;30.41
70089;HTU21D;57460;47.134;19.888;2022-09-09T13:06:32;32.50;30.93
70089;HTU21D;57460;47.134;19.888;2022-09-09T13:19:14;32.97;26.73
70089;HTU21D;57460;47.134;19.888;2022-09-09T13:28:43;32.07;31.04
70089;HTU21D;57460;47.134;19.888;2022-09-09T13:41:18;32.84;29.19
70089;HTU21D;57460;47.134;19.888;2022-09-09T13:47:19;32.53;29.45
70089;HTU21D;57460;47.134;19.888;2022-09-09T13:50:25;32.56;28.84
70089;HTU21D;57460;47.134;19.888;2022-09-09T13:53:03;32.61;29.04
70089;HTU21D;57460;47.134;19.888;2022-09-09T13:55:30;32.63;29.71
70089;HTU21D;57460;47.134;19.888;2022-09-09T13:58:05;32.76;29.75
70089;HTU21D;57460;47.134;19.888;2022-09-09T14:03:45;32.52;29.11
70089;HTU21D;57460;47.134;19.888;2022-09-09T14:06:21;32.48;29.49
70089;HTU21D;57460;47.134;19.888;2022-09-09T14:08:58;32.58;30.49
70089;HTU21D;57460;47.134;19.888;2022-09-09T14:11:27;32.73;29.03
70089;HTU21D;57460;47.134;19.888;2022-09-09T14:13:53;32.47;29.58
70089;HTU21D;57460;47.134;19.888;2022-09-09T14:16:21;32.32;27.56
70089;HTU21D;57460;47.134;19.888;2022-09-09T14:19:09;31.97;27.91
70089;HTU21D;57460;47.134;19.888;2022-09-09T14:21:35;31.80;27.45
70089;HTU21D;57460;47.134;19.888;2022-09-09T14:27:26;31.81;30.38
70089;HTU21D;57460;47.134;19.888;2022-09-09T14:57:04;31.48;29.18
70089;HTU21D;57460;47.134;19.888;2022-09-09T14:59:30;31.33;29.50
70089;HTU21D;57460;47.134;19.888;2022-09-09T15:15:38;30.45;30.14
70089;HTU21D;57460;47.134;19.888;2022-09-09T15:18:23;30.50;30.43
70089;HTU21D;57460;47.134;19.888;2022-09-09T15:24:41;30.32;32.02
70089;HTU21D;57460;47.134;19.888;2022-09-09T15:27:13;30.24;32.39
70089;HTU21D;57460;47.134;19.888;2022-09-09T15:29:40;30.25;32.97
70089;HTU21D;57460;47.134;19.888;2022-09-09T15:59:05;30.26;34.30
70089;HTU21D;57460;47.134;19.888;2022-09-09T16:01:50;30.19;34.29
70089;HTU21D;57460;47.134;19.888;2022-09-09T16:14:51;29.02;35.20
70089;HTU21D;57460;47.134;19.888;2022-09-09T16:20:14;28.86;36.15
70089;HTU21D;57460;47.134;19.888;2022-09-09T16:22:40;28.88;35.91
70089;HTU21D;57460;47.134;19.888;2022-09-09T16:25:10;28.91;35.90
70089;HTU21D;57460;47.134;19.888;2022-09-09T16:27:42;28.97;35.37
70089;HTU21D;57460;47.134;19.888;2022-09-09T16:30:11;28.94;35.95
70089;HTU21D;57460;47.134;19.888;2022-09-09T16:32:45;28.86;36.10
70089;HTU21D;57460;47.134;19.888;2022-09-09T16:35:14;28.83;36.67
70089;HTU21D;57460;47.134;19.888;2022-09-09T16:37:47;28.84;36.90
70089;HTU21D;57460;47.134;19.888;2022-09-09T16:40:22;28.82;37.10
70089;HTU21D;57460;47.134;19.888;2022-09-09T16:42:48;28.69;38.04
70089;HTU21D;57460;47.134;19.888;2022-09-09T16:45:23;28.45;38.08
70089;HTU21D;57460;47.134;19.888;2022-09-09T16:47:51;28.26;39.21
70089;HTU21D;57460;47.134;19.888;2022-09-09T16:50:44;28.17;39.31
70089;HTU21D;57460;47.134;19.888;2022-09-09T16:53:12;28.02;39.76
70089;HTU21D;57460;47.134;19.888;2022-09-09T16:55:43;27.87;40.09
70089;HTU21D;57460;47.134;19.888;2022-09-09T16:58:26;27.64;40.19
70089;HTU21D;57460;47.134;19.888;2022-09-09T17:00:58;27.53;40.48
70089;HTU21D;57460;47.134;19.888;2022-09-09T17:06:32;27.27;41.32
70089;HTU21D;57460;47.134;19.888;2022-09-09T17:09:11;27.20;41.61
70089;HTU21D;57460;47.134;19.888;2022-09-09T17:11:51;27.08;41.86
70089;HTU21D;57460;47.134;19.888;2022-09-09T17:14:24;26.98;41.97
70089;HTU21D;57460;47.134;19.888;2022-09-09T17:17:03;26.82;41.97
70089;HTU21D;57460;47.134;19.888;2022-09-09T17:19:36;26.67;41.88
70089;HTU21D;57460;47.134;19.888;2022-09-09T17:22:12;26.41;43.18
70089;HTU21D;57460;47.134;19.888;2022-09-09T17:24:43;26.30;43.52
70089;HTU21D;57460;47.134;19.888;2022-09-09T17:27:16;26.19;43.22
70089;HTU21D;57460;47.134;19.888;2022-09-09T17:29:47;26.05;43.54
70089;HTU21D;57460;47.134;19.888;2022-09-09T17:32:16;25.92;43.13
70089;HTU21D;57460;47.134;19.888;2022-09-09T17:34:55;25.77;44.20
70089;HTU21D;57460;47.134;19.888;2022-09-09T17:37:36;25.66;45.11
70089;HTU21D;57460;47.134;19.888;2022-09-09T17:57:12;24.89;46.38
70089;HTU21D;57460;47.134;19.888;2022-09-09T18:00:11;24.87;47.20
70089;HTU21D;57460;47.134;19.888;2022-09-09T18:33:51;23.84;49.63
70089;HTU21D;57460;47.134;19.888;2022-09-09T18:36:45;23.62;50.27
70089;HTU21D;57460;47.134;19.888;2022-09-09T19:02:50;23.76;54.78
70089;HTU21D;57460;47.134;19.888;2022-09-09T19:08:50;23.85;51.89
70089;HTU21D;57460;47.134;19.888;2022-09-09T19:18:27;23.75;54.61
70089;HTU21D;57460;47.134;19.888;2022-09-09T19:25:11;23.72;58.16
70089;HTU21D;57460;47.134;19.888;2022-09-09T19:37:32;23.86;57.63
70089;HTU21D;57460;47.134;19.888;2022-09-09T19:40:18;23.95;60.26
70089;HTU21D;57460;47.134;19.888;2022-09-09T19:42:46;23.95;58.95
70089;HTU21D;57460;47.134;19.888;2022-09-09T19:45:30;23.96;61.43
70089;HTU21D;57460;47.134;19.888;2022-09-09T19:48:05;23.94;60.41
70089;HTU21D;57460;47.134;19.888;2022-09-09T19:50:34;23.91;58.80
70089;HTU21D;57460;47.134;19.888;2022-09-09T19:53:01;23.91;61.79
70089;HTU21D;57460;47.134;19.888;2022-09-09T19:55:28;23.88;61.07
70089;HTU21D;57460;47.134;19.888;2022-09-09T19:58:04;23.83;59.21
70089;HTU21D;57460;47.134;19.888;2022-09-09T20:00:30;23.80;62.02
70089;HTU21D;57460;47.134;19.888;2022-09-09T20:03:02;23.75;61.38
70089;HTU21D;57460;47.134;19.888;2022-09-09T20:05:35;23.76;64.30
70089;HTU21D;57460;47.134;19.888;2022-09-09T20:08:05;23.73;62.63
70089;HTU21D;57460;47.134;19.888;2022-09-09T20:10:31;23.71;61.36
70089;HTU21D;57460;47.134;19.888;2022-09-09T20:13:02;23.69;62.66
70089;HTU21D;57460;47.134;19.888;2022-09-09T20:15:27;23.72;64.56
70089;HTU21D;57460;47.134;19.888;2022-09-09T20:17:53;23.75;62.98
70089;HTU21D;57460;47.134;19.888;2022-09-09T20:20:22;23.79;62.32
70089;HTU21D;57460;47.134;19.888;2022-09-09T20:22:51;23.80;62.62
70089;HTU21D;57460;47.134;19.888;2022-09-09T20:25:18;23.81;60.97
70089;HTU21D;57460;47.134;19.888;2022-09-09T20:27:45;23.87;60.55
70089;HTU21D;57460;47.134;19.888;2022-09-09T20:30:11;23.92;61.11
70089;HTU21D;57460;47.134;19.888;2022-09-09T20:32:44;23.94;60.56
70089;HTU21D;57460;47.134;19.888;2022-09-09T20:35:20;23.99;56.93
70089;HTU21D;57460;47.134;19.888;2022-09-09T20:38:03;24.04;57.45
70089;HTU21D;57460;47.134;19.888;2022-09-09T20:40:41;23.97;62.97
70089;HTU21D;57460;47.134;19.888;2022-09-09T20:43:15;23.94;58.73
70089;HTU21D;57460;47.134;19.888;2022-09-09T20:45:46;23.96;59.17
70089;HTU21D;57460;47.134;19.888;2022-09-09T20:48:20;23.96;61.87
70089;HTU21D;57460;47.134;19.888;2022-09-09T20:50:46;23.98;60.23
70089;HTU21D;57460;47.134;19.888;2022-09-09T20:53:12;24.01;60.83
70089;HTU21D;57460;47.134;19.888;2022-09-09T20:55:40;24.03;60.48
70089;HTU21D;57460;47.134;19.888;2022-09-09T20:58:06;24.03;60.97
70089;HTU21D;57460;47.134;19.888;2022-09-09T21:00:39;24.04;60.91
70089;HTU21D;57460;47.134;19.888;2022-09-09T21:03:05;24.00;60.55
70089;HTU21D;57460;47.134;19.888;2022-09-09T21:05:34;23.94;60.67
70089;HTU21D;57460;47.134;19.888;2022-09-09T21:07:59;23.92;61.28
70089;HTU21D;57460;47.134;19.888;2022-09-09T21:10:25;23.95;61.25
70089;HTU21D;57460;47.134;19.888;2022-09-09T21:12:51;23.90;60.70
70089;HTU21D;57460;47.134;19.888;2022-09-09T21:15:17;23.83;60.46
70089;HTU21D;57460;47.134;19.888;2022-09-09T21:17:42;23.76;61.12
70089;HTU21D;57460;47.134;19.888;2022-09-09T21:20:08;23.70;65.11
70089;HTU21D;57460;47.134;19.888;2022-09-09T21:22:34;23.66;64.27
70089;HTU21D;57460;47.134;19.888;2022-09-09T21:25:00;23.64;62.46
70089;HTU21D;57460;47.134;19.888;2022-09-09T21:27:26;23.64;63.14
70089;HTU21D;57460;47.134;19.888;2022-09-09T21:29:51;23.61;63.63
70089;HTU21D;57460;47.134;19.888;2022-09-09T21:32:17;23.61;63.76
70089;HTU21D;57460;47.134;19.888;2022-09-09T21:34:43;23.59;62.81
70089;HTU21D;57460;47.134;19.888;2022-09-09T21:37:10;23.58;61.02
70089;HTU21D;57460;47.134;19.888;2022-09-09T21:39:41;23.56;64.11
70089;HTU21D;57460;47.134;19.888;2022-09-09T21:44:42;23.56;66.65
70089;HTU21D;57460;47.134;19.888;2022-09-09T21:47:07;23.55;64.32
70089;HTU21D;57460;47.134;19.888;2022-09-09T21:49:36;23.53;65.33
70089;HTU21D;57460;47.134;19.888;2022-09-09T21:52:02;23.52;64.88
70089;HTU21D;57460;47.134;19.888;2022-09-09T21:54:31;23.49;64.62
70089;HTU21D;57460;47.134;19.888;2022-09-09T21:57:10;23.45;64.40
70089;HTU21D;57460;47.134;19.888;2022-09-09T22:00:06;23.45;64.76
70089;HTU21D;57460;47.134;19.888;2022-09-09T22:03:08;23.43;65.09
70089;HTU21D;57460;47.134;19.888;2022-09-09T22:05:38;23.40;64.83
70089;HTU21D;57460;47.134;19.888;2022-09-09T22:08:19;23.36;64.70
70089;HTU21D;57460;47.134;19.888;2022-09-09T22:13:38;23.34;66.17
70089;HTU21D;57460;47.134;19.888;2022-09-09T22:16:10;23.31;65.50
70089;HTU21D;57460;47.134;19.888;2022-09-09T22:21:31;23.34;62.63
70089;HTU21D;57460;47.134;19.888;2022-09-09T22:24:00;23.32;65.47
70089;HTU21D;57460;47.134;19.888;2022-09-09T22:26:32;23.37;63.51
70089;HTU21D;57460;47.134;19.888;2022-09-09T22:29:04;23.36;64.62
70089;HTU21D;57460;47.134;19.888;2022-09-09T22:31:39;23.35;65.65
70089;HTU21D;57460;47.134;19.888;2022-09-09T22:34:08;23.34;63.84
70089;HTU21D;57460;47.134;19.888;2022-09-09T22:36:46;23.37;62.75
70089;HTU21D;57460;47.134;19.888;2022-09-09T22:39:14;23.35;67.29
70089;HTU21D;57460;47.134;19.888;2022-09-09T22:41:40;23.29;67.53
70089;HTU21D;57460;47.134;19.888;2022-09-09T22:44:15;23.25;66.65
70089;HTU21D;57460;47.134;19.888;2022-09-09T22:46:41;23.23;64.56
70089;HTU21D;57460;47.134;19.888;2022-09-09T22:49:06;23.23;62.86
70089;HTU21D;57460;47.134;19.888;2022-09-09T22:51:32;23.21;62.98
70089;HTU21D;57460;47.134;19.888;2022-09-09T22:54:19;23.23;64.66
70089;HTU21D;57460;47.134;19.888;2022-09-09T22:56:50;23.23;64.44
70089;HTU21D;57460;47.134;19.888;2022-09-09T22:59:19;23.20;66.70
70089;HTU21D;57460;47.134;19.888;2022-09-09T23:01:45;23.16;66.06
70089;HTU21D;57460;47.134;19.888;2022-09-09T23:04:14;23.13;66.30
70089;HTU21D;57460;47.134;19.888;2022-09-09T23:06:40;23.12;66.57
70089;HTU21D;57460;47.134;19.888;2022-09-09T23:09:10;23.09;65.98
70089;HTU21D;57460;47.134;19.888;2022-09-09T23:11:41;23.12;63.46
70089;HTU21D;57460;47.134;19.888;2022-09-09T23:14:11;23.13;63.70
70089;HTU21D;57460;47.134;19.888;2022-09-09T23:16:45;23.13;65.17
70089;HTU21D;57460;47.134;19.888;2022-09-09T23:19:20;23.12;66.54
70089;HTU21D;57460;47.134;19.888;2022-09-09T23:25:00;23.08;67.22
70089;HTU21D;57460;47.134;19.888;2022-09-09T23:27:29;23.07;66.04
70089;HTU21D;57460;47.134;19.888;2022-09-09T23:29:55;23.06;66.50
70089;HTU21D;57460;47.134;19.888;2022-09-09T23:32:21;23.06;65.98
70089;HTU21D;57460;47.134;19.888;2022-09-09T23:34:50;23.05;66.80
70089;HTU21D;57460;47.134;19.888;2022-09-09T23:37:19;23.02;66.65
70089;HTU21D;57460;47.134;19.888;2022-09-09T23:39:48;23.06;63.43